Spring Lake, Minnesota
Current Conditions -  °F | °C
As of 8:13 PM on Wednesday 22 Oct 2014 (Local Time) from KFOZ Reporting Station
Clear Clear  
Wind Chill: 54°   Ceiling: Unl
Heat Index: 54°   Visibility: 10mi
Dew Point: 41°   Wind: 12mph
Humidity: 62%   Direction: 160°SSE
Pressure: 29.97"   Gusts: 16mph
Location:  47.64°N, 93.87°W
Report Text: KFOZ 230113Z AUTO 16010G14KT 10SM CLR 12/05 A2997 RMK AO2
Loading
Personal Weather Stations






























Interactive Weather Map
Tropical Storm Tracking
New forecast layout! Learn more

10-Day Weather Forecast

Advertisements
Track Severe Weather on mobile